createdAt,value
2018-11-10T00:00:42.760Z,9.12
2018-11-10T00:03:47.198Z,9.11
2018-11-10T00:06:51.099Z,9.09
2018-11-10T00:09:54.998Z,9.09
2018-11-10T00:12:58.899Z,9.10
2018-11-10T00:16:03.134Z,9.09
2018-11-10T00:19:07.371Z,9.09
2018-11-10T00:22:11.455Z,9.06
2018-11-10T00:25:16.618Z,9.06
2018-11-10T00:28:21.048Z,9.03
2018-11-10T00:31:25.353Z,9.07
2018-11-10T00:34:29.289Z,9.05
2018-11-10T00:37:33.651Z,9.04
2018-11-10T00:40:37.905Z,9.02
2018-11-10T00:43:41.803Z,9.02
2018-11-10T00:46:46.028Z,9.07
2018-11-10T00:49:50.250Z,9.01
2018-11-10T00:52:54.473Z,9.03
2018-11-10T00:55:58.719Z,9.04
2018-11-10T00:59:02.989Z,9.02
2018-11-10T01:02:06.922Z,9.08
2018-11-10T01:05:11.601Z,9.03
2018-11-10T01:08:15.683Z,9.03
2018-11-10T01:11:19.807Z,9.05
2018-11-10T01:14:23.701Z,9.01
2018-11-10T01:17:27.586Z,9.02
2018-11-10T01:20:31.861Z,9.03
2018-11-10T01:23:35.753Z,9.02
2018-11-10T01:26:39.842Z,9.03
2018-11-10T01:29:43.805Z,9.02
2018-11-10T01:32:47.721Z,9.04
2018-11-10T01:35:51.653Z,9.04
2018-11-10T01:38:55.582Z,9.03
2018-11-10T01:41:59.530Z,8.99
2018-11-10T01:45:03.875Z,8.98
2018-11-10T01:48:07.977Z,9.01
2018-11-10T01:51:12.077Z,8.99
2018-11-10T01:54:15.990Z,8.97
2018-11-10T01:57:19.941Z,9.00
2018-11-10T02:00:24.197Z,8.99
2018-11-10T02:03:28.876Z,8.95
2018-11-10T02:06:33.307Z,8.97
2018-11-10T02:09:37.433Z,8.97
2018-11-10T02:12:41.433Z,8.98
2018-11-10T02:15:45.526Z,8.95
2018-11-10T02:18:49.688Z,8.94
2018-11-10T02:21:54.406Z,8.90
2018-11-10T02:24:58.327Z,8.91
2018-11-10T02:28:02.817Z,8.90
2018-11-10T02:31:06.722Z,8.86
2018-11-10T02:34:10.672Z,8.87
2018-11-10T02:37:15.471Z,8.87
2018-11-10T02:40:19.771Z,8.87
2018-11-10T02:43:23.710Z,8.86
2018-11-10T02:46:27.631Z,8.81
2018-11-10T02:49:31.565Z,8.81
2018-11-10T02:52:35.810Z,8.78
2018-11-10T02:55:39.890Z,8.80
2018-11-10T02:58:43.834Z,8.78
2018-11-10T03:01:47.771Z,8.77
2018-11-10T03:04:51.705Z,8.73
2018-11-10T03:07:55.628Z,8.70
2018-11-10T03:10:59.538Z,8.68
2018-11-10T03:14:04.003Z,8.65
2018-11-10T03:17:07.921Z,8.63
2018-11-10T03:20:14.374Z,8.56
2018-11-10T03:23:18.309Z,8.58
2018-11-10T03:26:22.242Z,8.51
2018-11-10T03:29:26.246Z,8.55
2018-11-10T03:32:30.207Z,8.49
2018-11-10T03:35:34.125Z,8.43
2018-11-10T03:38:38.054Z,8.41
2018-11-10T03:41:41.969Z,8.38
2018-11-10T03:44:45.893Z,8.32
2018-11-10T03:47:49.842Z,8.31
2018-11-10T03:50:53.957Z,8.28
2018-11-10T03:53:57.887Z,8.22
2018-11-10T03:57:02.145Z,8.19
2018-11-10T04:00:09.743Z,8.20
2018-11-10T04:03:13.923Z,8.24
2018-11-10T04:06:18.225Z,8.24
2018-11-10T04:09:22.448Z,8.23
2018-11-10T04:12:28.902Z,8.28
2018-11-10T04:15:32.806Z,8.23
2018-11-10T04:18:37.005Z,8.26
2018-11-10T04:21:40.932Z,8.26
2018-11-10T04:24:44.939Z,8.22
2018-11-10T04:27:48.853Z,8.23
2018-11-10T04:30:52.761Z,8.28
2018-11-10T04:33:56.689Z,8.24
2018-11-10T04:37:00.601Z,8.26
2018-11-10T04:40:04.733Z,8.30
2018-11-10T04:43:08.641Z,8.29
2018-11-10T04:46:12.569Z,8.24
2018-11-10T04:49:16.482Z,8.29
2018-11-10T04:52:20.396Z,8.33
2018-11-10T04:55:24.505Z,8.34
2018-11-10T04:58:28.418Z,8.34
2018-11-10T05:01:32.357Z,8.35
2018-11-10T05:04:36.438Z,8.36
2018-11-10T05:07:40.434Z,8.36
2018-11-10T05:10:44.459Z,8.36
2018-11-10T05:13:48.358Z,8.39
2018-11-10T05:16:52.269Z,8.39
2018-11-10T05:19:56.193Z,8.38
2018-11-10T05:23:00.419Z,8.41
2018-11-10T05:26:04.517Z,8.43
2018-11-10T05:29:08.829Z,8.43
2018-11-10T05:32:12.790Z,8.41
2018-11-10T05:35:16.698Z,8.44
2018-11-10T05:38:20.813Z,8.46
2018-11-10T05:41:25.133Z,8.44
2018-11-10T05:44:29.118Z,8.45
2018-11-10T05:47:33.024Z,8.46
2018-11-10T05:50:36.937Z,8.49
2018-11-10T05:53:40.854Z,8.49
2018-11-10T05:56:44.769Z,8.50
2018-11-10T05:59:48.693Z,8.52
2018-11-10T06:02:52.593Z,8.50
2018-11-10T06:05:56.738Z,8.50
2018-11-10T06:09:00.651Z,8.49
2018-11-10T06:12:05.215Z,8.53
2018-11-10T06:15:10.001Z,8.49
2018-11-10T06:18:13.899Z,8.49
2018-11-10T06:21:17.805Z,8.52
2018-11-10T06:24:21.783Z,8.52
2018-11-10T06:27:25.713Z,8.51
2018-11-10T06:30:29.609Z,8.51
2018-11-10T06:33:33.519Z,8.53
2018-11-10T06:36:37.423Z,8.51
2018-11-10T06:39:41.353Z,8.53
2018-11-10T06:42:45.341Z,8.54
2018-11-10T06:45:49.590Z,8.54
2018-11-10T06:48:53.541Z,8.54
2018-11-10T06:51:57.471Z,8.58
2018-11-10T06:55:01.378Z,8.57
2018-11-10T06:58:05.633Z,8.56
2018-11-10T07:01:09.538Z,8.54
2018-11-10T07:04:13.479Z,8.58
2018-11-10T07:07:17.416Z,8.59
2018-11-10T07:10:21.754Z,8.59
2018-11-10T07:13:25.674Z,8.59
2018-11-10T07:16:29.584Z,8.60
2018-11-10T07:19:33.562Z,8.61
2018-11-10T07:22:37.538Z,8.62
2018-11-10T07:25:41.474Z,8.68
2018-11-10T07:28:45.409Z,8.68
2018-11-10T07:31:49.351Z,8.69
2018-11-10T07:34:53.542Z,8.69
2018-11-10T07:37:57.438Z,8.74
2018-11-10T07:41:01.375Z,8.78
2018-11-10T07:44:05.804Z,8.77
2018-11-10T07:47:09.719Z,8.77
2018-11-10T07:50:13.676Z,8.82
2018-11-10T07:53:17.584Z,8.83
2018-11-10T07:56:21.504Z,8.84
2018-11-10T07:59:25.395Z,8.86
2018-11-10T08:02:29.308Z,8.85
2018-11-10T08:05:33.626Z,8.84
2018-11-10T08:08:37.529Z,8.87
2018-11-10T08:11:41.520Z,8.90
2018-11-10T08:14:45.896Z,8.88
2018-11-10T08:17:49.812Z,8.99
2018-11-10T08:20:53.778Z,8.97
2018-11-10T08:23:57.918Z,8.95
2018-11-10T08:27:01.839Z,8.93
2018-11-10T08:30:07.292Z,8.94
2018-11-10T08:33:11.201Z,8.95
2018-11-10T08:36:15.133Z,8.99
2018-11-10T08:39:19.102Z,8.98
2018-11-10T08:42:23.147Z,8.96
2018-11-10T08:45:27.229Z,8.96
2018-11-10T08:48:31.124Z,8.99
2018-11-10T08:51:35.042Z,9.00
2018-11-10T08:54:39.296Z,9.01
2018-11-10T08:57:44.038Z,9.05
2018-11-10T09:00:48.018Z,9.03
2018-11-10T09:03:51.931Z,9.03
2018-11-10T09:06:55.851Z,9.06
2018-11-10T09:09:59.795Z,9.05
2018-11-10T09:13:03.863Z,9.08
2018-11-10T09:16:07.963Z,9.08
2018-11-10T09:19:11.875Z,9.14
2018-11-10T09:22:16.327Z,9.15
2018-11-10T09:25:20.235Z,9.15
2018-11-10T09:28:24.134Z,9.19
2018-11-10T09:31:42.046Z,9.19
2018-11-10T09:34:49.997Z,9.19
2018-11-10T09:37:53.910Z,9.19
2018-11-10T09:40:57.819Z,9.20
2018-11-10T09:44:01.722Z,9.23
2018-11-10T09:47:06.084Z,9.24
2018-11-10T09:50:15.214Z,9.27
2018-11-10T09:53:19.125Z,9.28
2018-11-10T09:56:23.349Z,9.29
2018-11-10T09:59:27.241Z,9.33
2018-11-10T10:02:31.562Z,9.40
2018-11-10T10:05:35.257Z,9.40
2018-11-10T10:08:39.470Z,9.42
2018-11-10T10:11:43.504Z,9.44
2018-11-10T10:14:47.394Z,9.47
2018-11-10T10:17:51.295Z,9.50
2018-11-10T10:20:55.186Z,9.51
2018-11-10T10:23:59.103Z,9.54
2018-11-10T10:27:03.375Z,9.57
2018-11-10T10:30:10.662Z,9.60
2018-11-10T10:33:14.929Z,9.64
2018-11-10T10:36:18.862Z,9.67
2018-11-10T10:39:22.947Z,9.70
2018-11-10T10:42:26.856Z,9.75
2018-11-10T10:45:31.074Z,9.76
2018-11-10T10:48:35.072Z,9.79
2018-11-10T10:51:39.434Z,9.81
2018-11-10T10:54:43.322Z,9.84
2018-11-10T10:57:48.742Z,9.87
2018-11-10T11:00:58.054Z,9.90
2018-11-10T11:04:07.302Z,9.94
2018-11-10T11:07:11.219Z,9.95
2018-11-10T11:10:15.126Z,10.00
2018-11-10T11:13:19.016Z,10.02
2018-11-10T11:16:23.097Z,10.07
2018-11-10T11:19:27.002Z,10.10
2018-11-10T11:22:30.916Z,10.14
2018-11-10T11:25:34.997Z,10.15
2018-11-10T11:28:39.405Z,10.22
2018-11-10T11:31:43.637Z,10.24
2018-11-10T11:34:47.541Z,10.28
2018-11-10T11:37:51.464Z,10.30
2018-11-10T11:40:55.563Z,10.32
2018-11-10T11:43:59.666Z,10.35
2018-11-10T11:47:03.871Z,10.37
2018-11-10T11:50:19.922Z,10.39
2018-11-10T11:53:23.786Z,10.42
2018-11-10T11:56:27.649Z,10.46
2018-11-10T11:59:31.512Z,10.51
2018-11-10T12:02:35.379Z,10.54
2018-11-10T12:05:39.793Z,10.56
2018-11-10T12:08:43.663Z,10.59
2018-11-10T12:11:47.516Z,10.61
2018-11-10T12:14:51.596Z,10.63
2018-11-10T12:17:55.470Z,10.65
2018-11-10T12:20:59.387Z,10.69
2018-11-10T12:24:03.413Z,10.70
2018-11-10T12:27:07.442Z,10.72
2018-11-10T12:30:11.982Z,10.74
2018-11-10T12:33:15.907Z,10.76
2018-11-10T12:36:20.122Z,10.81
2018-11-10T12:39:23.981Z,10.83
2018-11-10T12:42:28.056Z,10.84
2018-11-10T12:45:31.918Z,10.86
2018-11-10T12:48:35.778Z,10.87
2018-11-10T12:51:39.821Z,10.90
2018-11-10T12:54:43.738Z,10.92
2018-11-10T12:57:47.782Z,10.95
2018-11-10T13:00:51.661Z,10.96
2018-11-10T13:03:55.646Z,10.98
2018-11-10T13:06:59.745Z,11.00
2018-11-10T13:10:03.829Z,11.02
2018-11-10T13:13:07.688Z,11.02
2018-11-10T13:16:11.554Z,11.04
2018-11-10T13:19:15.437Z,11.07
2018-11-10T13:22:19.353Z,11.07
2018-11-10T13:25:23.545Z,11.09
2018-11-10T13:28:27.409Z,11.10
2018-11-10T13:31:31.331Z,11.12
2018-11-10T13:34:35.355Z,11.11
2018-11-10T13:37:39.226Z,11.13
2018-11-10T13:40:43.095Z,11.15
2018-11-10T13:43:47.478Z,11.14
2018-11-10T13:46:51.545Z,11.15
2018-11-10T13:49:55.630Z,11.15
2018-11-10T13:53:00.510Z,11.17
2018-11-10T13:56:04.091Z,11.15
2018-11-10T13:59:08.530Z,11.17
2018-11-10T14:02:18.922Z,11.16
2018-11-10T14:05:22.823Z,11.16
2018-11-10T14:08:26.893Z,11.16
2018-11-10T14:11:30.748Z,11.17
2018-11-10T14:14:34.612Z,11.17
2018-11-10T14:17:38.963Z,11.17
2018-11-10T14:20:43.044Z,11.15
2018-11-10T14:23:47.060Z,11.15
2018-11-10T14:26:51.253Z,11.14
2018-11-10T14:29:55.457Z,11.14
2018-11-10T14:32:59.649Z,11.15
2018-11-10T14:36:03.863Z,11.14
2018-11-10T14:39:09.492Z,11.13
2018-11-10T14:42:13.541Z,11.12
2018-11-10T14:45:18.688Z,11.10
2018-11-10T14:48:22.553Z,11.10
2018-11-10T14:51:27.310Z,11.10
2018-11-10T14:54:31.177Z,11.08
2018-11-10T14:57:35.532Z,11.06
2018-11-10T15:00:39.389Z,11.08
2018-11-10T15:03:43.248Z,11.06
2018-11-10T15:06:47.460Z,11.04
2018-11-10T15:09:51.349Z,11.03
2018-11-10T15:12:55.215Z,11.05
2018-11-10T15:15:59.449Z,11.02
2018-11-10T15:19:03.733Z,11.00
2018-11-10T15:22:07.894Z,11.00
2018-11-10T15:25:14.665Z,10.97
2018-11-10T15:28:18.706Z,10.96
2018-11-10T15:31:22.573Z,10.92
2018-11-10T15:34:26.434Z,10.93
2018-11-10T15:37:30.341Z,10.92
2018-11-10T15:40:34.427Z,10.90
2018-11-10T15:43:38.372Z,10.88
2018-11-10T15:46:42.251Z,10.82
2018-11-10T15:49:46.102Z,10.80
2018-11-10T15:52:50.182Z,10.81
2018-11-10T15:55:54.229Z,10.78
2018-11-10T15:59:04.874Z,10.78
2018-11-10T16:02:08.777Z,10.73
2018-11-10T16:05:13.484Z,10.71
2018-11-10T16:08:17.526Z,10.70
2018-11-10T16:11:21.766Z,10.70
2018-11-10T16:14:25.629Z,10.65
2018-11-10T16:17:29.496Z,10.63
2018-11-10T16:20:33.362Z,10.59
2018-11-10T16:23:37.242Z,10.59
2018-11-10T16:26:41.098Z,10.60
2018-11-10T16:29:45.167Z,10.56
2018-11-10T16:32:49.632Z,10.54
2018-11-10T16:35:53.687Z,10.51
2018-11-10T16:38:57.769Z,10.48
2018-11-10T16:42:01.632Z,10.48
2018-11-10T16:45:06.189Z,10.45
2018-11-10T16:48:10.081Z,10.46
2018-11-10T16:51:14.037Z,10.45
2018-11-10T16:54:17.901Z,10.44
2018-11-10T16:57:21.823Z,10.42
2018-11-10T17:00:25.881Z,10.38
2018-11-10T17:03:30.122Z,10.39
2018-11-10T17:06:34.026Z,10.34
2018-11-10T17:09:37.877Z,10.33
2018-11-10T17:12:42.524Z,10.32
2018-11-10T17:15:46.389Z,10.30
2018-11-10T17:18:50.268Z,10.27
2018-11-10T17:21:54.427Z,10.27
2018-11-10T17:24:58.353Z,10.25
2018-11-10T17:28:02.227Z,10.25
2018-11-10T17:31:06.632Z,10.26
2018-11-10T17:34:10.489Z,10.26
2018-11-10T17:37:14.365Z,10.24
2018-11-10T17:40:18.480Z,10.25
2018-11-10T17:43:22.593Z,10.23
2018-11-10T17:46:26.455Z,10.21
2018-11-10T17:49:30.418Z,10.21
2018-11-10T17:52:34.396Z,10.19
2018-11-10T17:55:38.393Z,10.22
2018-11-10T17:58:42.726Z,10.19
2018-11-10T18:01:47.266Z,10.21
2018-11-10T18:04:51.217Z,10.22
2018-11-10T18:07:55.091Z,10.17
2018-11-10T18:10:58.944Z,10.15
2018-11-10T18:14:02.820Z,10.16
2018-11-10T18:17:07.000Z,10.13
2018-11-10T18:20:12.295Z,10.13
2018-11-10T18:23:16.139Z,10.12
2018-11-10T18:26:20.089Z,10.12
2018-11-10T18:29:24.520Z,10.12
2018-11-10T18:32:28.431Z,10.11
2018-11-10T18:35:32.776Z,10.10
2018-11-10T18:38:36.643Z,10.09
2018-11-10T18:41:40.792Z,10.10
2018-11-10T18:44:44.661Z,10.09
2018-11-10T18:47:48.508Z,10.09
2018-11-10T18:50:52.368Z,10.07
2018-11-10T18:53:56.237Z,10.04
2018-11-10T18:57:00.465Z,10.12
2018-11-10T19:00:04.629Z,10.07
2018-11-10T19:03:08.709Z,10.06
2018-11-10T19:06:12.958Z,10.07
2018-11-10T19:09:16.966Z,10.07
2018-11-10T19:12:21.012Z,10.04
2018-11-10T19:15:24.876Z,10.05
2018-11-10T19:18:29.273Z,10.06
2018-11-10T19:21:33.169Z,10.04
2018-11-10T19:24:37.021Z,10.05
2018-11-10T19:27:41.216Z,10.09
2018-11-10T19:30:45.068Z,10.06
2018-11-10T19:33:49.312Z,10.07
2018-11-10T19:36:53.343Z,10.03
2018-11-10T19:39:57.728Z,10.02
2018-11-10T19:43:01.609Z,10.00
2018-11-10T19:46:06.105Z,10.01
2018-11-10T19:49:10.550Z,10.01
2018-11-10T19:52:14.811Z,10.01
2018-11-10T19:55:18.668Z,10.02
2018-11-10T19:58:22.521Z,10.03
2018-11-10T20:01:27.425Z,10.02
2018-11-10T20:04:31.315Z,10.02
2018-11-10T20:07:35.562Z,10.03
2018-11-10T20:10:39.573Z,10.03
2018-11-10T20:13:43.470Z,10.04
2018-11-10T20:16:47.519Z,10.04
2018-11-10T20:19:51.382Z,10.04
2018-11-10T20:22:55.453Z,10.04
2018-11-10T20:25:59.321Z,10.05
2018-11-10T20:29:03.522Z,10.05
2018-11-10T20:32:07.373Z,10.04
2018-11-10T20:35:12.917Z,10.05
2018-11-10T20:38:17.003Z,10.06
2018-11-10T20:41:20.873Z,10.06
2018-11-10T20:44:24.921Z,10.07
2018-11-10T20:47:29.129Z,10.08
2018-11-10T20:50:33.203Z,10.08
2018-11-10T20:53:37.624Z,10.08
2018-11-10T20:56:41.813Z,10.08
2018-11-10T20:59:45.999Z,10.09
2018-11-10T21:02:49.856Z,10.09
2018-11-10T21:05:53.801Z,10.10
2018-11-10T21:08:57.781Z,10.11
2018-11-10T21:12:01.646Z,10.11
2018-11-10T21:15:06.328Z,10.12
2018-11-10T21:18:10.202Z,10.12
2018-11-10T21:21:14.405Z,10.13
2018-11-10T21:24:18.262Z,10.14
2018-11-10T21:27:22.122Z,10.15
2018-11-10T21:30:25.968Z,10.15
2018-11-10T21:33:29.916Z,10.17
2018-11-10T21:36:33.900Z,10.17
2018-11-10T21:39:37.763Z,10.19
2018-11-10T21:42:42.079Z,10.19
2018-11-10T21:45:45.930Z,10.20
2018-11-10T21:48:49.798Z,10.22
2018-11-10T21:51:54.317Z,10.23
2018-11-10T21:54:58.522Z,10.23
2018-11-10T21:58:02.370Z,10.25
2018-11-10T22:01:06.464Z,10.27
2018-11-10T22:04:10.317Z,10.27
2018-11-10T22:07:14.174Z,10.29
2018-11-10T22:10:18.726Z,10.30
2018-11-10T22:13:22.586Z,10.31
2018-11-10T22:16:26.645Z,10.32
2018-11-10T22:19:30.502Z,10.32
2018-11-10T22:22:34.366Z,10.33
2018-11-10T22:25:38.748Z,10.33
2018-11-10T22:28:42.605Z,10.35
2018-11-10T22:31:46.450Z,10.34
2018-11-10T22:34:50.648Z,10.34
2018-11-10T22:37:54.506Z,10.34
2018-11-10T22:40:58.367Z,10.34
2018-11-10T22:44:02.228Z,10.35
2018-11-10T22:47:06.630Z,10.34
2018-11-10T22:50:13.785Z,10.36
2018-11-10T22:53:17.842Z,10.36
2018-11-10T22:56:21.691Z,10.37
2018-11-10T22:59:25.880Z,10.37
2018-11-10T23:02:30.315Z,10.37
2018-11-10T23:05:34.373Z,10.38
2018-11-10T23:08:38.794Z,10.39
2018-11-10T23:11:42.866Z,10.40
2018-11-10T23:14:46.720Z,10.40
2018-11-10T23:17:50.927Z,10.41
2018-11-10T23:20:54.784Z,10.42
2018-11-10T23:23:59.029Z,10.43
2018-11-10T23:27:03.373Z,10.43
2018-11-10T23:30:14.904Z,10.44
2018-11-10T23:33:18.953Z,10.44
2018-11-10T23:36:22.807Z,10.43
2018-11-10T23:39:26.987Z,10.45
2018-11-10T23:42:30.842Z,10.45
2018-11-10T23:45:35.263Z,10.46
2018-11-10T23:48:39.881Z,10.46
2018-11-10T23:51:43.737Z,10.47
2018-11-10T23:54:47.594Z,10.46
2018-11-10T23:57:51.468Z,10.47
